sensor_id;sensor_type;location;lat;lon;timestamp;P1;durP1;ratioP1;P2;durP2;ratioP2
78672;SDS011;67988;60.086;30.354;2023-08-24T06:07:25;9.80;;;3.60;;
78672;SDS011;67988;60.086;30.354;2023-08-24T06:09:52;11.38;;;5.90;;
78672;SDS011;67988;60.086;30.354;2023-08-24T06:12:19;14.77;;;5.57;;
78672;SDS011;67988;60.086;30.354;2023-08-24T06:14:47;12.27;;;4.82;;
78672;SDS011;67988;60.086;30.354;2023-08-24T06:17:14;12.27;;;5.25;;
78672;SDS011;67988;60.086;30.354;2023-08-24T06:19:41;10.25;;;4.60;;
78672;SDS011;67988;60.086;30.354;2023-08-24T06:22:08;13.27;;;4.97;;
78672;SDS011;67988;60.086;30.354;2023-08-24T06:24:37;12.25;;;4.32;;
78672;SDS011;67988;60.086;30.354;2023-08-24T06:27:04;13.60;;;4.40;;
78672;SDS011;67988;60.086;30.354;2023-08-24T06:29:31;8.73;;;3.80;;
78672;SDS011;67988;60.086;30.354;2023-08-24T06:31:58;9.85;;;4.53;;
78672;SDS011;67988;60.086;30.354;2023-08-24T06:34:26;8.98;;;4.88;;
78672;SDS011;67988;60.086;30.354;2023-08-24T06:36:53;5.47;;;3.10;;
78672;SDS011;67988;60.086;30.354;2023-08-24T06:39:21;9.45;;;3.75;;
78672;SDS011;67988;60.086;30.354;2023-08-24T06:41:51;7.90;;;3.58;;
78672;SDS011;67988;60.086;30.354;2023-08-24T06:44:24;10.93;;;2.90;;
78672;SDS011;67988;60.086;30.354;2023-08-24T06:46:51;38.45;;;6.82;;
78672;SDS011;67988;60.086;30.354;2023-08-24T06:49:18;19.08;;;3.95;;
78672;SDS011;67988;60.086;30.354;2023-08-24T06:51:45;18.67;;;4.22;;
78672;SDS011;67988;60.086;30.354;2023-08-24T06:54:12;9.15;;;2.90;;
78672;SDS011;67988;60.086;30.354;2023-08-24T06:56:40;12.55;;;3.75;;
78672;SDS011;67988;60.086;30.354;2023-08-24T06:59:10;13.35;;;3.17;;
78672;SDS011;67988;60.086;30.354;2023-08-24T07:01:38;22.52;;;3.95;;
78672;SDS011;67988;60.086;30.354;2023-08-24T07:04:07;10.95;;;2.88;;
78672;SDS011;67988;60.086;30.354;2023-08-24T07:06:34;9.70;;;3.45;;
78672;SDS011;67988;60.086;30.354;2023-08-24T07:09:01;5.13;;;2.03;;
78672;SDS011;67988;60.086;30.354;2023-08-24T07:11:31;9.90;;;2.38;;
78672;SDS011;67988;60.086;30.354;2023-08-24T07:13:59;8.77;;;2.40;;
78672;SDS011;67988;60.086;30.354;2023-08-24T07:16:27;4.85;;;2.28;;
78672;SDS011;67988;60.086;30.354;2023-08-24T07:18:54;7.55;;;2.60;;
78672;SDS011;67988;60.086;30.354;2023-08-24T07:21:22;15.82;;;2.78;;
78672;SDS011;67988;60.086;30.354;2023-08-24T07:23:49;9.25;;;2.97;;
78672;SDS011;67988;60.086;30.354;2023-08-24T15:54:03;8.48;;;1.83;;
78672;SDS011;67988;60.086;30.354;2023-08-24T15:56:30;5.68;;;2.03;;
78672;SDS011;67988;60.086;30.354;2023-08-24T16:01:24;12.38;;;2.72;;
78672;SDS011;67988;60.086;30.354;2023-08-24T16:06:18;16.20;;;2.42;;
78672;SDS011;67988;60.086;30.354;2023-08-24T16:08:45;16.92;;;3.10;;
78672;SDS011;67988;60.086;30.354;2023-08-24T16:11:14;7.20;;;1.83;;
78672;SDS011;67988;60.086;30.354;2023-08-24T16:13:41;8.43;;;2.22;;
78672;SDS011;67988;60.086;30.354;2023-08-24T16:16:08;17.77;;;2.67;;
78672;SDS011;67988;60.086;30.354;2023-08-24T16:18:35;6.60;;;1.38;;
78672;SDS011;67988;60.086;30.354;2023-08-24T16:21:02;12.40;;;2.22;;
78672;SDS011;67988;60.086;30.354;2023-08-24T16:23:30;8.73;;;2.03;;
78672;SDS011;67988;60.086;30.354;2023-08-24T16:25:57;10.82;;;2.10;;
78672;SDS011;67988;60.086;30.354;2023-08-24T16:28:26;3.38;;;1.45;;
78672;SDS011;67988;60.086;30.354;2023-08-24T16:30:53;9.38;;;1.95;;
78672;SDS011;67988;60.086;30.354;2023-08-24T16:33:20;7.45;;;1.65;;
78672;SDS011;67988;60.086;30.354;2023-08-24T16:35:48;5.45;;;1.83;;
78672;SDS011;67988;60.086;30.354;2023-08-24T16:38:16;5.10;;;2.03;;
78672;SDS011;67988;60.086;30.354;2023-08-24T16:40:45;5.45;;;1.55;;
78672;SDS011;67988;60.086;30.354;2023-08-24T16:43:12;6.97;;;1.23;;
78672;SDS011;67988;60.086;30.354;2023-08-24T16:45:41;3.83;;;1.58;;
78672;SDS011;67988;60.086;30.354;2023-08-24T16:48:08;5.55;;;1.63;;
78672;SDS011;67988;60.086;30.354;2023-08-24T16:50:35;9.63;;;1.52;;
78672;SDS011;67988;60.086;30.354;2023-08-24T16:53:03;5.45;;;1.85;;
78672;SDS011;67988;60.086;30.354;2023-08-24T16:55:30;7.25;;;1.88;;
78672;SDS011;67988;60.086;30.354;2023-08-24T16:57:57;10.70;;;2.30;;
78672;SDS011;67988;60.086;30.354;2023-08-24T17:00:25;6.43;;;1.45;;
78672;SDS011;67988;60.086;30.354;2023-08-24T17:02:54;7.95;;;2.10;;
78672;SDS011;67988;60.086;30.354;2023-08-24T17:05:21;9.88;;;1.70;;
78672;SDS011;67988;60.086;30.354;2023-08-24T17:08:01;10.95;;;2.30;;
78672;SDS011;67988;60.086;30.354;2023-08-24T17:10:30;8.13;;;2.20;;
78672;SDS011;67988;60.086;30.354;2023-08-24T17:12:58;5.82;;;1.67;;
78672;SDS011;67988;60.086;30.354;2023-08-24T17:15:25;6.00;;;1.83;;
78672;SDS011;67988;60.086;30.354;2023-08-24T17:20:21;4.47;;;1.60;;
78672;SDS011;67988;60.086;30.354;2023-08-24T17:22:48;6.45;;;2.05;;
78672;SDS011;67988;60.086;30.354;2023-08-24T17:25:15;5.95;;;3.53;;
78672;SDS011;67988;60.086;30.354;2023-08-24T17:27:42;5.63;;;3.38;;
78672;SDS011;67988;60.086;30.354;2023-08-24T17:30:10;7.10;;;3.38;;
78672;SDS011;67988;60.086;30.354;2023-08-24T17:32:38;7.63;;;2.88;;
78672;SDS011;67988;60.086;30.354;2023-08-24T17:35:07;7.80;;;4.20;;
78672;SDS011;67988;60.086;30.354;2023-08-24T17:37:34;5.88;;;3.47;;
78672;SDS011;67988;60.086;30.354;2023-08-24T17:40:02;9.52;;;3.50;;
78672;SDS011;67988;60.086;30.354;2023-08-24T17:42:32;6.22;;;2.70;;
78672;SDS011;67988;60.086;30.354;2023-08-24T17:44:59;7.60;;;3.00;;
78672;SDS011;67988;60.086;30.354;2023-08-24T17:47:26;5.28;;;2.70;;
78672;SDS011;67988;60.086;30.354;2023-08-24T17:49:53;6.15;;;2.95;;
78672;SDS011;67988;60.086;30.354;2023-08-24T17:52:22;6.88;;;2.78;;
78672;SDS011;67988;60.086;30.354;2023-08-24T17:54:49;6.07;;;2.63;;
78672;SDS011;67988;60.086;30.354;2023-08-24T17:57:16;10.35;;;3.25;;
78672;SDS011;67988;60.086;30.354;2023-08-24T17:59:43;10.73;;;3.33;;
78672;SDS011;67988;60.086;30.354;2023-08-24T18:02:11;8.73;;;3.17;;
78672;SDS011;67988;60.086;30.354;2023-08-24T18:04:38;6.90;;;2.92;;
78672;SDS011;67988;60.086;30.354;2023-08-24T18:07:05;7.07;;;2.67;;
78672;SDS011;67988;60.086;30.354;2023-08-24T18:09:34;7.75;;;3.67;;
78672;SDS011;67988;60.086;30.354;2023-08-24T18:12:02;6.47;;;3.22;;
78672;SDS011;67988;60.086;30.354;2023-08-24T18:14:30;7.70;;;2.97;;
78672;SDS011;67988;60.086;30.354;2023-08-24T18:16:58;13.05;;;4.30;;
78672;SDS011;67988;60.086;30.354;2023-08-24T18:19:25;12.05;;;3.95;;
78672;SDS011;67988;60.086;30.354;2023-08-24T18:21:52;11.18;;;4.18;;
78672;SDS011;67988;60.086;30.354;2023-08-24T18:24:19;9.43;;;3.67;;
78672;SDS011;67988;60.086;30.354;2023-08-24T18:26:48;9.10;;;3.92;;
78672;SDS011;67988;60.086;30.354;2023-08-24T18:29:15;11.30;;;4.07;;
78672;SDS011;67988;60.086;30.354;2023-08-24T18:31:42;17.65;;;3.78;;
78672;SDS011;67988;60.086;30.354;2023-08-24T18:34:10;10.20;;;3.58;;
78672;SDS011;67988;60.086;30.354;2023-08-24T18:36:37;11.07;;;4.80;;
78672;SDS011;67988;60.086;30.354;2023-08-24T18:39:04;17.15;;;4.80;;
78672;SDS011;67988;60.086;30.354;2023-08-24T18:41:33;10.23;;;3.58;;
78672;SDS011;67988;60.086;30.354;2023-08-24T18:44:01;10.25;;;4.57;;
78672;SDS011;67988;60.086;30.354;2023-08-24T18:46:29;12.70;;;3.75;;
78672;SDS011;67988;60.086;30.354;2023-08-24T18:48:56;14.50;;;4.70;;
78672;SDS011;67988;60.086;30.354;2023-08-24T18:51:23;7.68;;;3.67;;
78672;SDS011;67988;60.086;30.354;2023-08-24T18:53:50;8.68;;;3.40;;
78672;SDS011;67988;60.086;30.354;2023-08-24T18:56:18;10.98;;;3.95;;
78672;SDS011;67988;60.086;30.354;2023-08-24T18:58:45;12.07;;;4.85;;
78672;SDS011;67988;60.086;30.354;2023-08-24T19:01:13;9.50;;;3.85;;
78672;SDS011;67988;60.086;30.354;2023-08-24T19:03:42;12.68;;;4.70;;
78672;SDS011;67988;60.086;30.354;2023-08-24T19:06:09;10.70;;;4.47;;
78672;SDS011;67988;60.086;30.354;2023-08-24T19:08:36;7.15;;;3.80;;
78672;SDS011;67988;60.086;30.354;2023-08-24T19:11:02;8.52;;;3.95;;
78672;SDS011;67988;60.086;30.354;2023-08-24T19:13:29;9.18;;;3.85;;
78672;SDS011;67988;60.086;30.354;2023-08-24T19:16:00;9.15;;;4.10;;
78672;SDS011;67988;60.086;30.354;2023-08-24T19:18:31;9.35;;;4.22;;
78672;SDS011;67988;60.086;30.354;2023-08-24T19:20:58;7.88;;;3.97;;
78672;SDS011;67988;60.086;30.354;2023-08-24T19:25:53;19.88;;;4.60;;
78672;SDS011;67988;60.086;30.354;2023-08-24T19:28:20;10.07;;;5.75;;
78672;SDS011;67988;60.086;30.354;2023-08-24T19:30:47;11.38;;;4.20;;
78672;SDS011;67988;60.086;30.354;2023-08-24T19:33:18;8.25;;;4.45;;
78672;SDS011;67988;60.086;30.354;2023-08-24T19:35:46;9.07;;;4.68;;
78672;SDS011;67988;60.086;30.354;2023-08-24T19:38:14;8.25;;;4.13;;
78672;SDS011;67988;60.086;30.354;2023-08-24T19:40:41;9.75;;;4.07;;
78672;SDS011;67988;60.086;30.354;2023-08-24T19:43:09;9.45;;;4.85;;
78672;SDS011;67988;60.086;30.354;2023-08-24T19:45:36;11.95;;;3.97;;
78672;SDS011;67988;60.086;30.354;2023-08-24T19:48:04;5.78;;;3.90;;
78672;SDS011;67988;60.086;30.354;2023-08-24T19:50:33;7.53;;;4.80;;
78672;SDS011;67988;60.086;30.354;2023-08-24T19:53:04;10.43;;;5.28;;
78672;SDS011;67988;60.086;30.354;2023-08-24T19:55:33;8.82;;;4.43;;
78672;SDS011;67988;60.086;30.354;2023-08-24T19:58:00;7.05;;;4.32;;
78672;SDS011;67988;60.086;30.354;2023-08-24T20:00:27;8.30;;;4.10;;
78672;SDS011;67988;60.086;30.354;2023-08-24T20:02:55;10.57;;;4.90;;
78672;SDS011;67988;60.086;30.354;2023-08-24T20:05:23;11.57;;;4.45;;
78672;SDS011;67988;60.086;30.354;2023-08-24T20:07:50;6.05;;;3.75;;
78672;SDS011;67988;60.086;30.354;2023-08-24T20:10:19;12.35;;;4.13;;
78672;SDS011;67988;60.086;30.354;2023-08-24T20:12:49;10.90;;;6.55;;
78672;SDS011;67988;60.086;30.354;2023-08-24T20:15:17;11.15;;;4.32;;
78672;SDS011;67988;60.086;30.354;2023-08-24T20:17:46;10.93;;;4.20;;
78672;SDS011;67988;60.086;30.354;2023-08-24T20:20:14;11.32;;;4.18;;
78672;SDS011;67988;60.086;30.354;2023-08-24T20:22:42;8.30;;;3.78;;
78672;SDS011;67988;60.086;30.354;2023-08-24T20:25:10;12.35;;;4.55;;
78672;SDS011;67988;60.086;30.354;2023-08-24T20:27:40;11.10;;;4.07;;
78672;SDS011;67988;60.086;30.354;2023-08-24T20:30:08;9.00;;;4.07;;
78672;SDS011;67988;60.086;30.354;2023-08-24T20:32:36;11.77;;;5.03;;
78672;SDS011;67988;60.086;30.354;2023-08-24T20:35:03;8.75;;;4.05;;
78672;SDS011;67988;60.086;30.354;2023-08-24T20:37:31;11.63;;;5.20;;
78672;SDS011;67988;60.086;30.354;2023-08-24T20:42:25;19.88;;;5.95;;
78672;SDS011;67988;60.086;30.354;2023-08-24T20:44:54;9.80;;;4.70;;
78672;SDS011;67988;60.086;30.354;2023-08-24T20:47:21;12.35;;;4.80;;
78672;SDS011;67988;60.086;30.354;2023-08-24T20:49:50;9.68;;;4.63;;
78672;SDS011;67988;60.086;30.354;2023-08-24T20:52:18;9.65;;;3.95;;
78672;SDS011;67988;60.086;30.354;2023-08-24T20:54:46;11.10;;;4.40;;
78672;SDS011;67988;60.086;30.354;2023-08-24T20:57:13;13.77;;;5.05;;
78672;SDS011;67988;60.086;30.354;2023-08-24T20:59:40;13.18;;;4.07;;
78672;SDS011;67988;60.086;30.354;2023-08-24T21:02:09;11.20;;;4.15;;
78672;SDS011;67988;60.086;30.354;2023-08-24T21:04:36;11.15;;;5.35;;
78672;SDS011;67988;60.086;30.354;2023-08-24T21:07:04;8.13;;;4.30;;
78672;SDS011;67988;60.086;30.354;2023-08-24T21:09:31;9.20;;;4.78;;
78672;SDS011;67988;60.086;30.354;2023-08-24T21:11:58;15.85;;;4.25;;
78672;SDS011;67988;60.086;30.354;2023-08-24T21:14:25;6.07;;;4.07;;
78672;SDS011;67988;60.086;30.354;2023-08-24T21:16:52;9.30;;;3.88;;
78672;SDS011;67988;60.086;30.354;2023-08-24T21:19:21;7.55;;;3.63;;
78672;SDS011;67988;60.086;30.354;2023-08-24T21:21:48;9.25;;;4.68;;
78672;SDS011;67988;60.086;30.354;2023-08-24T21:24:15;7.32;;;4.53;;
78672;SDS011;67988;60.086;30.354;2023-08-24T21:26:42;8.27;;;5.35;;
78672;SDS011;67988;60.086;30.354;2023-08-24T21:29:10;10.02;;;3.53;;
78672;SDS011;67988;60.086;30.354;2023-08-24T21:31:37;10.70;;;4.13;;
78672;SDS011;67988;60.086;30.354;2023-08-24T21:34:04;7.57;;;4.60;;
78672;SDS011;67988;60.086;30.354;2023-08-24T21:36:32;12.25;;;6.05;;
78672;SDS011;67988;60.086;30.354;2023-08-24T21:38:59;10.68;;;5.65;;
78672;SDS011;67988;60.086;30.354;2023-08-24T21:41:27;8.77;;;5.13;;
78672;SDS011;67988;60.086;30.354;2023-08-24T21:43:54;15.45;;;5.85;;
78672;SDS011;67988;60.086;30.354;2023-08-24T21:46:21;9.55;;;5.55;;
78672;SDS011;67988;60.086;30.354;2023-08-24T21:51:15;12.30;;;4.68;;
78672;SDS011;67988;60.086;30.354;2023-08-24T21:53:44;8.10;;;5.05;;
78672;SDS011;67988;60.086;30.354;2023-08-24T21:56:11;10.23;;;5.28;;
78672;SDS011;67988;60.086;30.354;2023-08-24T21:58:38;10.00;;;4.20;;
78672;SDS011;67988;60.086;30.354;2023-08-24T22:01:06;10.32;;;5.28;;
78672;SDS011;67988;60.086;30.354;2023-08-24T22:03:34;7.75;;;5.40;;
78672;SDS011;67988;60.086;30.354;2023-08-24T22:06:02;9.20;;;4.32;;
78672;SDS011;67988;60.086;30.354;2023-08-24T22:08:29;17.55;;;6.63;;
78672;SDS011;67988;60.086;30.354;2023-08-24T22:10:58;8.65;;;5.38;;
78672;SDS011;67988;60.086;30.354;2023-08-24T22:13:26;9.55;;;5.85;;
78672;SDS011;67988;60.086;30.354;2023-08-24T22:15:53;13.25;;;6.30;;
78672;SDS011;67988;60.086;30.354;2023-08-24T22:18:21;10.23;;;5.20;;
78672;SDS011;67988;60.086;30.354;2023-08-24T22:20:49;9.77;;;4.03;;
78672;SDS011;67988;60.086;30.354;2023-08-24T22:25:45;8.90;;;4.50;;
78672;SDS011;67988;60.086;30.354;2023-08-24T22:28:14;11.25;;;5.93;;
78672;SDS011;67988;60.086;30.354;2023-08-24T22:30:41;8.65;;;4.95;;
78672;SDS011;67988;60.086;30.354;2023-08-24T22:33:09;8.65;;;5.38;;
78672;SDS011;67988;60.086;30.354;2023-08-24T22:35:38;7.95;;;5.45;;
78672;SDS011;67988;60.086;30.354;2023-08-24T22:38:05;9.88;;;4.78;;
78672;SDS011;67988;60.086;30.354;2023-08-24T22:40:34;10.63;;;4.82;;
78672;SDS011;67988;60.086;30.354;2023-08-24T22:43:01;8.77;;;4.80;;
78672;SDS011;67988;60.086;30.354;2023-08-24T22:45:37;8.90;;;4.68;;
78672;SDS011;67988;60.086;30.354;2023-08-24T22:48:05;9.60;;;4.90;;
78672;SDS011;67988;60.086;30.354;2023-08-24T22:50:33;13.40;;;6.50;;
78672;SDS011;67988;60.086;30.354;2023-08-24T22:53:00;8.90;;;5.00;;
78672;SDS011;67988;60.086;30.354;2023-08-24T22:55:29;10.30;;;5.47;;
78672;SDS011;67988;60.086;30.354;2023-08-24T23:00:24;11.32;;;5.45;;
78672;SDS011;67988;60.086;30.354;2023-08-24T23:02:52;10.32;;;6.10;;
78672;SDS011;67988;60.086;30.354;2023-08-24T23:05:19;10.10;;;5.78;;
78672;SDS011;67988;60.086;30.354;2023-08-24T23:07:47;9.95;;;5.10;;
78672;SDS011;67988;60.086;30.354;2023-08-24T23:10:14;10.93;;;5.53;;
78672;SDS011;67988;60.086;30.354;2023-08-24T23:15:09;16.13;;;6.45;;
78672;SDS011;67988;60.086;30.354;2023-08-24T23:17:38;11.00;;;6.10;;
78672;SDS011;67988;60.086;30.354;2023-08-24T23:20:07;10.65;;;5.35;;
78672;SDS011;67988;60.086;30.354;2023-08-24T23:22:36;8.13;;;5.47;;
78672;SDS011;67988;60.086;30.354;2023-08-24T23:25:04;16.52;;;5.80;;
78672;SDS011;67988;60.086;30.354;2023-08-24T23:27:32;9.93;;;6.05;;
78672;SDS011;67988;60.086;30.354;2023-08-24T23:29:59;9.98;;;5.22;;
78672;SDS011;67988;60.086;30.354;2023-08-24T23:32:27;10.70;;;4.88;;
78672;SDS011;67988;60.086;30.354;2023-08-24T23:34:55;12.48;;;6.25;;
78672;SDS011;67988;60.086;30.354;2023-08-24T23:39:51;7.80;;;6.03;;
78672;SDS011;67988;60.086;30.354;2023-08-24T23:42:18;10.10;;;5.18;;
78672;SDS011;67988;60.086;30.354;2023-08-24T23:44:47;13.27;;;5.80;;
78672;SDS011;67988;60.086;30.354;2023-08-24T23:47:14;12.90;;;5.90;;
78672;SDS011;67988;60.086;30.354;2023-08-24T23:49:41;12.52;;;6.28;;
78672;SDS011;67988;60.086;30.354;2023-08-24T23:52:08;11.93;;;6.70;;
78672;SDS011;67988;60.086;30.354;2023-08-24T23:54:37;12.00;;;5.47;;
78672;SDS011;67988;60.086;30.354;2023-08-24T23:57:04;11.25;;;5.30;;
78672;SDS011;67988;60.086;30.354;2023-08-24T23:59:31;10.90;;;6.07;;
